sensor_id;sensor_type;location;lat;lon;timestamp;temperature;humidity
60033;DHT22;45905;50.570;10.428;2022-09-28T00:01:16;7.90;96.20
60033;DHT22;45905;50.570;10.428;2022-09-28T00:03:46;7.90;96.10
60033;DHT22;45905;50.570;10.428;2022-09-28T00:06:17;7.90;96.10
60033;DHT22;45905;50.570;10.428;2022-09-28T00:08:46;7.90;96.20
60033;DHT22;45905;50.570;10.428;2022-09-28T00:11:17;7.80;96.10
60033;DHT22;45905;50.570;10.428;2022-09-28T00:13:51;7.90;96.20
60033;DHT22;45905;50.570;10.428;2022-09-28T00:16:21;7.90;96.20
60033;DHT22;45905;50.570;10.428;2022-09-28T00:18:51;7.80;96.10
60033;DHT22;45905;50.570;10.428;2022-09-28T00:21:21;7.80;96.10
60033;DHT22;45905;50.570;10.428;2022-09-28T00:23:58;7.80;96.10
60033;DHT22;45905;50.570;10.428;2022-09-28T00:29:30;7.80;96.20
60033;DHT22;45905;50.570;10.428;2022-09-28T00:32:04;7.80;96.20
60033;DHT22;45905;50.570;10.428;2022-09-28T00:34:36;7.80;96.10
60033;DHT22;45905;50.570;10.428;2022-09-28T00:37:06;7.80;96.20
60033;DHT22;45905;50.570;10.428;2022-09-28T00:39:37;7.80;96.20
60033;DHT22;45905;50.570;10.428;2022-09-28T00:42:19;7.70;96.30
60033;DHT22;45905;50.570;10.428;2022-09-28T00:44:53;7.70;96.40
60033;DHT22;45905;50.570;10.428;2022-09-28T00:47:42;7.70;96.40
60033;DHT22;45905;50.570;10.428;2022-09-28T00:55:47;7.80;96.60
60033;DHT22;45905;50.570;10.428;2022-09-28T00:58:20;7.80;96.70
60033;DHT22;45905;50.570;10.428;2022-09-28T01:00:55;7.90;96.80
60033;DHT22;45905;50.570;10.428;2022-09-28T01:03:25;7.80;96.70
60033;DHT22;45905;50.570;10.428;2022-09-28T01:05:56;7.90;96.80
60033;DHT22;45905;50.570;10.428;2022-09-28T01:08:26;7.80;96.70
60033;DHT22;45905;50.570;10.428;2022-09-28T01:10:56;7.80;96.80
60033;DHT22;45905;50.570;10.428;2022-09-28T01:13:27;7.80;96.80
60033;DHT22;45905;50.570;10.428;2022-09-28T01:25:11;7.80;97.00
60033;DHT22;45905;50.570;10.428;2022-09-28T01:27:48;7.80;97.00
60033;DHT22;45905;50.570;10.428;2022-09-28T01:30:20;7.80;97.10
60033;DHT22;45905;50.570;10.428;2022-09-28T01:35:39;7.80;97.00
60033;DHT22;45905;50.570;10.428;2022-09-28T01:38:53;7.80;96.90
60033;DHT22;45905;50.570;10.428;2022-09-28T01:41:15;7.80;96.90
60033;DHT22;45905;50.570;10.428;2022-09-28T01:43:48;7.90;97.00
60033;DHT22;45905;50.570;10.428;2022-09-28T01:46:27;7.80;97.00
60033;DHT22;45905;50.570;10.428;2022-09-28T01:49:05;7.90;97.10
60033;DHT22;45905;50.570;10.428;2022-09-28T01:54:22;7.90;97.00
60033;DHT22;45905;50.570;10.428;2022-09-28T01:59:56;8.00;97.10
60033;DHT22;45905;50.570;10.428;2022-09-28T02:02:33;7.90;97.00
60033;DHT22;45905;50.570;10.428;2022-09-28T02:05:15;8.00;97.00
60033;DHT22;45905;50.570;10.428;2022-09-28T02:11:06;7.90;96.90
60033;DHT22;45905;50.570;10.428;2022-09-28T02:13:42;7.90;96.90
60033;DHT22;45905;50.570;10.428;2022-09-28T02:16:16;7.90;96.90
60033;DHT22;45905;50.570;10.428;2022-09-28T02:18:48;7.90;97.20
60033;DHT22;45905;50.570;10.428;2022-09-28T02:21:25;7.90;96.90
60033;DHT22;45905;50.570;10.428;2022-09-28T02:23:57;7.90;96.90
60033;DHT22;45905;50.570;10.428;2022-09-28T02:26:34;7.90;97.00
60033;DHT22;45905;50.570;10.428;2022-09-28T02:29:07;7.90;96.90
60033;DHT22;45905;50.570;10.428;2022-09-28T02:31:34;8.00;97.00
60033;DHT22;45905;50.570;10.428;2022-09-28T02:34:02;8.00;97.00
60033;DHT22;45905;50.570;10.428;2022-09-28T02:36:30;8.00;97.30
60033;DHT22;45905;50.570;10.428;2022-09-28T02:38:59;8.00;97.00
60033;DHT22;45905;50.570;10.428;2022-09-28T02:44:30;8.00;97.00
60033;DHT22;45905;50.570;10.428;2022-09-28T02:50:34;8.00;97.00
60033;DHT22;45905;50.570;10.428;2022-09-28T02:53:23;8.00;97.00
60033;DHT22;45905;50.570;10.428;2022-09-28T02:56:10;8.00;97.00
60033;DHT22;45905;50.570;10.428;2022-09-28T03:05:10;8.00;97.10
60033;DHT22;45905;50.570;10.428;2022-09-28T03:07:45;8.00;97.10
60033;DHT22;45905;50.570;10.428;2022-09-28T03:10:29;8.00;97.10
60033;DHT22;45905;50.570;10.428;2022-09-28T03:13:30;8.00;97.20
60033;DHT22;45905;50.570;10.428;2022-09-28T03:16:13;8.00;97.10
60033;DHT22;45905;50.570;10.428;2022-09-28T03:18:46;8.00;97.10
60033;DHT22;45905;50.570;10.428;2022-09-28T03:21:14;8.00;97.20
60033;DHT22;45905;50.570;10.428;2022-09-28T03:23:42;8.00;97.20
60033;DHT22;45905;50.570;10.428;2022-09-28T03:26:13;8.00;97.20
60033;DHT22;45905;50.570;10.428;2022-09-28T03:28:42;8.00;97.30
60033;DHT22;45905;50.570;10.428;2022-09-28T03:31:14;8.00;97.30
60033;DHT22;45905;50.570;10.428;2022-09-28T03:33:41;8.00;97.20
60033;DHT22;45905;50.570;10.428;2022-09-28T03:36:08;8.00;97.20
60033;DHT22;45905;50.570;10.428;2022-09-28T03:38:36;8.00;97.10
60033;DHT22;45905;50.570;10.428;2022-09-28T03:41:05;8.00;97.20
60033;DHT22;45905;50.570;10.428;2022-09-28T03:43:35;8.00;97.20
60033;DHT22;45905;50.570;10.428;2022-09-28T03:46:03;8.00;97.10
60033;DHT22;45905;50.570;10.428;2022-09-28T03:48:36;8.00;97.10
60033;DHT22;45905;50.570;10.428;2022-09-28T03:51:05;8.00;97.10
60033;DHT22;45905;50.570;10.428;2022-09-28T03:53:35;8.00;97.10
60033;DHT22;45905;50.570;10.428;2022-09-28T03:56:04;8.00;97.10
60033;DHT22;45905;50.570;10.428;2022-09-28T03:58:34;8.00;97.00
60033;DHT22;45905;50.570;10.428;2022-09-28T04:01:06;8.10;97.00
60033;DHT22;45905;50.570;10.428;2022-09-28T04:03:44;8.10;96.90
60033;DHT22;45905;50.570;10.428;2022-09-28T04:06:13;8.00;96.80
60033;DHT22;45905;50.570;10.428;2022-09-28T04:08:40;8.10;96.90
60033;DHT22;45905;50.570;10.428;2022-09-28T04:11:09;8.10;96.90
60033;DHT22;45905;50.570;10.428;2022-09-28T04:13:36;8.00;96.90
60033;DHT22;45905;50.570;10.428;2022-09-28T04:16:06;8.10;97.00
60033;DHT22;45905;50.570;10.428;2022-09-28T04:18:34;8.10;97.00
60033;DHT22;45905;50.570;10.428;2022-09-28T04:21:27;8.10;97.00
60033;DHT22;45905;50.570;10.428;2022-09-28T04:24:01;8.10;97.00
60033;DHT22;45905;50.570;10.428;2022-09-28T04:26:28;8.10;97.00
60033;DHT22;45905;50.570;10.428;2022-09-28T04:28:56;8.10;97.10
60033;DHT22;45905;50.570;10.428;2022-09-28T04:31:54;8.20;97.10
60033;DHT22;45905;50.570;10.428;2022-09-28T04:34:28;8.20;97.10
60033;DHT22;45905;50.570;10.428;2022-09-28T04:37:02;8.20;97.10
60033;DHT22;45905;50.570;10.428;2022-09-28T04:39:29;8.20;97.10
60033;DHT22;45905;50.570;10.428;2022-09-28T04:41:56;8.10;96.90
60033;DHT22;45905;50.570;10.428;2022-09-28T04:44:23;8.20;97.00
60033;DHT22;45905;50.570;10.428;2022-09-28T04:46:56;8.20;97.00
60033;DHT22;45905;50.570;10.428;2022-09-28T04:49:47;8.20;97.00
60033;DHT22;45905;50.570;10.428;2022-09-28T04:52:19;8.20;97.30
60033;DHT22;45905;50.570;10.428;2022-09-28T04:54:48;8.20;97.10
60033;DHT22;45905;50.570;10.428;2022-09-28T04:57:15;8.20;97.20
60033;DHT22;45905;50.570;10.428;2022-09-28T04:59:43;8.20;97.10
60033;DHT22;45905;50.570;10.428;2022-09-28T05:02:10;8.30;97.20
60033;DHT22;45905;50.570;10.428;2022-09-28T05:04:59;8.20;97.30
60033;DHT22;45905;50.570;10.428;2022-09-28T05:07:57;8.20;97.30
60033;DHT22;45905;50.570;10.428;2022-09-28T05:10:24;8.20;97.40
60033;DHT22;45905;50.570;10.428;2022-09-28T05:12:52;8.20;97.40
60033;DHT22;45905;50.570;10.428;2022-09-28T05:15:19;8.20;97.40
60033;DHT22;45905;50.570;10.428;2022-09-28T05:17:47;8.20;97.40
60033;DHT22;45905;50.570;10.428;2022-09-28T05:20:19;8.30;97.40
60033;DHT22;45905;50.570;10.428;2022-09-28T05:22:46;8.30;97.40
60033;DHT22;45905;50.570;10.428;2022-09-28T05:25:14;8.30;97.40
60033;DHT22;45905;50.570;10.428;2022-09-28T05:27:59;8.30;97.40
60033;DHT22;45905;50.570;10.428;2022-09-28T05:30:48;8.30;97.40
60033;DHT22;45905;50.570;10.428;2022-09-28T05:33:36;8.30;97.40
60033;DHT22;45905;50.570;10.428;2022-09-28T05:36:11;8.30;97.30
60033;DHT22;45905;50.570;10.428;2022-09-28T05:38:40;8.30;97.30
60033;DHT22;45905;50.570;10.428;2022-09-28T05:41:07;8.30;97.20
60033;DHT22;45905;50.570;10.428;2022-09-28T05:43:35;8.30;97.20
60033;DHT22;45905;50.570;10.428;2022-09-28T05:46:04;8.30;97.20
60033;DHT22;45905;50.570;10.428;2022-09-28T05:48:34;8.30;97.20
60033;DHT22;45905;50.570;10.428;2022-09-28T05:51:01;8.20;97.20
60033;DHT22;45905;50.570;10.428;2022-09-28T05:53:29;8.20;97.20
60033;DHT22;45905;50.570;10.428;2022-09-28T05:55:58;8.20;97.30
60033;DHT22;45905;50.570;10.428;2022-09-28T05:58:26;8.20;97.20
60033;DHT22;45905;50.570;10.428;2022-09-28T06:00:55;8.30;97.30
60033;DHT22;45905;50.570;10.428;2022-09-28T06:03:23;8.30;97.40
60033;DHT22;45905;50.570;10.428;2022-09-28T06:05:50;8.30;97.40
60033;DHT22;45905;50.570;10.428;2022-09-28T06:08:18;8.30;97.40
60033;DHT22;45905;50.570;10.428;2022-09-28T06:10:52;8.30;97.40
60033;DHT22;45905;50.570;10.428;2022-09-28T06:13:19;8.30;97.30
60033;DHT22;45905;50.570;10.428;2022-09-28T06:15:46;8.30;97.40
60033;DHT22;45905;50.570;10.428;2022-09-28T06:18:13;8.30;97.70
60033;DHT22;45905;50.570;10.428;2022-09-28T06:20:59;8.30;97.40
60033;DHT22;45905;50.570;10.428;2022-09-28T06:23:31;8.30;97.40
60033;DHT22;45905;50.570;10.428;2022-09-28T06:25:58;8.40;97.40
60033;DHT22;45905;50.570;10.428;2022-09-28T06:28:26;8.40;97.50
60033;DHT22;45905;50.570;10.428;2022-09-28T06:30:54;8.40;97.40
60033;DHT22;45905;50.570;10.428;2022-09-28T06:33:21;8.40;97.40
60033;DHT22;45905;50.570;10.428;2022-09-28T06:35:49;8.40;97.40
60033;DHT22;45905;50.570;10.428;2022-09-28T06:38:17;8.40;97.40
60033;DHT22;45905;50.570;10.428;2022-09-28T06:40:44;8.40;97.50
60033;DHT22;45905;50.570;10.428;2022-09-28T06:43:13;8.40;97.50
60033;DHT22;45905;50.570;10.428;2022-09-28T06:46:01;8.30;97.50
60033;DHT22;45905;50.570;10.428;2022-09-28T06:48:47;8.30;97.50
60033;DHT22;45905;50.570;10.428;2022-09-28T06:51:34;8.30;97.60
60033;DHT22;45905;50.570;10.428;2022-09-28T06:54:18;8.20;97.70
60033;DHT22;45905;50.570;10.428;2022-09-28T06:56:56;8.20;97.80
60033;DHT22;45905;50.570;10.428;2022-09-28T06:59:23;8.10;97.90
60033;DHT22;45905;50.570;10.428;2022-09-28T07:01:51;8.10;98.00
60033;DHT22;45905;50.570;10.428;2022-09-28T07:04:36;8.10;97.90
60033;DHT22;45905;50.570;10.428;2022-09-28T07:07:10;8.10;98.00
60033;DHT22;45905;50.570;10.428;2022-09-28T07:09:57;8.00;97.70
60033;DHT22;45905;50.570;10.428;2022-09-28T07:12:35;8.00;97.40
60033;DHT22;45905;50.570;10.428;2022-09-28T07:15:20;8.00;97.30
60033;DHT22;45905;50.570;10.428;2022-09-28T07:17:48;7.90;97.30
60033;DHT22;45905;50.570;10.428;2022-09-28T07:20:30;8.10;97.30
60033;DHT22;45905;50.570;10.428;2022-09-28T07:23:10;8.10;97.50
60033;DHT22;45905;50.570;10.428;2022-09-28T07:26:04;8.10;97.30
60033;DHT22;45905;50.570;10.428;2022-09-28T07:28:53;8.10;97.10
60033;DHT22;45905;50.570;10.428;2022-09-28T07:31:30;8.10;97.10
60033;DHT22;45905;50.570;10.428;2022-09-28T07:34:17;8.10;97.20
60033;DHT22;45905;50.570;10.428;2022-09-28T07:37:00;8.20;97.20
60033;DHT22;45905;50.570;10.428;2022-09-28T07:39:27;8.20;97.30
60033;DHT22;45905;50.570;10.428;2022-09-28T07:41:55;8.30;97.40
60033;DHT22;45905;50.570;10.428;2022-09-28T07:44:28;8.20;97.10
60033;DHT22;45905;50.570;10.428;2022-09-28T07:46:56;8.20;96.90
60033;DHT22;45905;50.570;10.428;2022-09-28T07:49:33;8.20;97.00
60033;DHT22;45905;50.570;10.428;2022-09-28T07:52:33;8.20;97.00
60033;DHT22;45905;50.570;10.428;2022-09-28T07:55:12;8.20;97.00
60033;DHT22;45905;50.570;10.428;2022-09-28T07:57:59;8.30;97.20
60033;DHT22;45905;50.570;10.428;2022-09-28T08:01:07;8.30;97.20
60033;DHT22;45905;50.570;10.428;2022-09-28T08:03:38;8.30;96.90
60033;DHT22;45905;50.570;10.428;2022-09-28T08:06:06;8.30;96.90
60033;DHT22;45905;50.570;10.428;2022-09-28T08:08:37;8.30;96.70
60033;DHT22;45905;50.570;10.428;2022-09-28T08:11:13;8.20;96.00
60033;DHT22;45905;50.570;10.428;2022-09-28T08:14:08;8.20;96.30
60033;DHT22;45905;50.570;10.428;2022-09-28T08:17:00;8.20;96.40
60033;DHT22;45905;50.570;10.428;2022-09-28T08:19:41;8.20;96.50
60033;DHT22;45905;50.570;10.428;2022-09-28T08:22:27;8.20;96.40
60033;DHT22;45905;50.570;10.428;2022-09-28T08:24:58;8.30;96.50
60033;DHT22;45905;50.570;10.428;2022-09-28T08:27:26;8.30;96.60
60033;DHT22;45905;50.570;10.428;2022-09-28T08:29:53;8.30;96.70
60033;DHT22;45905;50.570;10.428;2022-09-28T08:32:46;8.30;96.70
60033;DHT22;45905;50.570;10.428;2022-09-28T08:35:35;8.30;96.70
60033;DHT22;45905;50.570;10.428;2022-09-28T08:38:14;8.30;96.70
60033;DHT22;45905;50.570;10.428;2022-09-28T08:41:26;8.30;96.60
60033;DHT22;45905;50.570;10.428;2022-09-28T08:44:26;8.30;96.30
60033;DHT22;45905;50.570;10.428;2022-09-28T08:47:17;8.30;96.30
60033;DHT22;45905;50.570;10.428;2022-09-28T08:50:52;8.40;96.70
60033;DHT22;45905;50.570;10.428;2022-09-28T08:53:42;8.40;96.50
60033;DHT22;45905;50.570;10.428;2022-09-28T08:56:42;8.50;96.40
60033;DHT22;45905;50.570;10.428;2022-09-28T09:02:26;8.50;96.20
60033;DHT22;45905;50.570;10.428;2022-09-28T09:05:14;8.60;96.30
60033;DHT22;45905;50.570;10.428;2022-09-28T09:08:14;8.70;96.40
60033;DHT22;45905;50.570;10.428;2022-09-28T09:13:51;8.80;96.40
60033;DHT22;45905;50.570;10.428;2022-09-28T09:26:30;9.00;95.50
60033;DHT22;45905;50.570;10.428;2022-09-28T09:32:35;9.10;95.10
60033;DHT22;45905;50.570;10.428;2022-09-28T09:35:55;9.10;95.00
60033;DHT22;45905;50.570;10.428;2022-09-28T09:49:14;9.10;94.10
60033;DHT22;45905;50.570;10.428;2022-09-28T09:52:04;9.10;94.30
60033;DHT22;45905;50.570;10.428;2022-09-28T10:00:46;9.30;94.60
60033;DHT22;45905;50.570;10.428;2022-09-28T10:03:44;9.10;94.60
60033;DHT22;45905;50.570;10.428;2022-09-28T10:06:21;9.10;94.30
60033;DHT22;45905;50.570;10.428;2022-09-28T10:09:13;9.10;94.40
60033;DHT22;45905;50.570;10.428;2022-09-28T10:12:21;9.10;94.80
60033;DHT22;45905;50.570;10.428;2022-09-28T10:14:50;9.10;94.80
60033;DHT22;45905;50.570;10.428;2022-09-28T10:17:18;9.10;94.80
60033;DHT22;45905;50.570;10.428;2022-09-28T10:20:18;9.10;94.80
60033;DHT22;45905;50.570;10.428;2022-09-28T10:22:59;9.00;94.80
60033;DHT22;45905;50.570;10.428;2022-09-28T10:25:32;9.10;94.80
60033;DHT22;45905;50.570;10.428;2022-09-28T10:28:04;9.20;94.80
60033;DHT22;45905;50.570;10.428;2022-09-28T10:30:37;9.20;94.80
60033;DHT22;45905;50.570;10.428;2022-09-28T10:33:33;9.20;94.60
60033;DHT22;45905;50.570;10.428;2022-09-28T10:36:05;9.20;94.40
60033;DHT22;45905;50.570;10.428;2022-09-28T10:38:33;9.30;94.00
60033;DHT22;45905;50.570;10.428;2022-09-28T10:41:10;9.30;94.00
60033;DHT22;45905;50.570;10.428;2022-09-28T10:44:02;9.30;94.10
60033;DHT22;45905;50.570;10.428;2022-09-28T10:47:02;9.30;94.00
60033;DHT22;45905;50.570;10.428;2022-09-28T10:49:41;9.30;93.90
60033;DHT22;45905;50.570;10.428;2022-09-28T10:52:39;9.30;93.90
60033;DHT22;45905;50.570;10.428;2022-09-28T10:55:31;9.30;93.90
60033;DHT22;45905;50.570;10.428;2022-09-28T10:57:59;9.40;94.00
60033;DHT22;45905;50.570;10.428;2022-09-28T11:00:43;9.40;94.30
60033;DHT22;45905;50.570;10.428;2022-09-28T11:03:24;9.50;94.30
60033;DHT22;45905;50.570;10.428;2022-09-28T11:06:03;9.60;94.30
60033;DHT22;45905;50.570;10.428;2022-09-28T11:08:38;9.60;93.80
60033;DHT22;45905;50.570;10.428;2022-09-28T11:11:14;9.60;93.50
60033;DHT22;45905;50.570;10.428;2022-09-28T11:13:48;9.60;93.60
60033;DHT22;45905;50.570;10.428;2022-09-28T11:16:26;9.60;92.90
60033;DHT22;45905;50.570;10.428;2022-09-28T11:19:27;9.60;92.90
60033;DHT22;45905;50.570;10.428;2022-09-28T11:21:55;9.60;93.10
60033;DHT22;45905;50.570;10.428;2022-09-28T11:24:31;9.70;93.40
60033;DHT22;45905;50.570;10.428;2022-09-28T11:27:01;9.80;94.00
60033;DHT22;45905;50.570;10.428;2022-09-28T11:29:41;9.90;94.20
60033;DHT22;45905;50.570;10.428;2022-09-28T11:32:29;10.00;93.90
60033;DHT22;45905;50.570;10.428;2022-09-28T11:35:44;10.10;93.60
60033;DHT22;45905;50.570;10.428;2022-09-28T11:38:42;10.40;93.50
60033;DHT22;45905;50.570;10.428;2022-09-28T11:41:53;10.60;92.90
60033;DHT22;45905;50.570;10.428;2022-09-28T11:44:35;10.70;92.20
60033;DHT22;45905;50.570;10.428;2022-09-28T11:56:17;10.90;90.80
60033;DHT22;45905;50.570;10.428;2022-09-28T11:59:02;11.00;90.70
60033;DHT22;45905;50.570;10.428;2022-09-28T12:01:59;11.00;88.80
60033;DHT22;45905;50.570;10.428;2022-09-28T12:05:16;11.10;89.60
60033;DHT22;45905;50.570;10.428;2022-09-28T12:07:58;11.20;89.10
60033;DHT22;45905;50.570;10.428;2022-09-28T12:14:04;11.60;86.50
60033;DHT22;45905;50.570;10.428;2022-09-28T12:16:56;11.80;85.90
60033;DHT22;45905;50.570;10.428;2022-09-28T12:19:36;11.90;84.60
60033;DHT22;45905;50.570;10.428;2022-09-28T12:22:16;12.00;81.70
60033;DHT22;45905;50.570;10.428;2022-09-28T12:24:50;12.00;79.60
60033;DHT22;45905;50.570;10.428;2022-09-28T12:30:18;12.00;81.90
60033;DHT22;45905;50.570;10.428;2022-09-28T12:33:00;12.10;81.30
60033;DHT22;45905;50.570;10.428;2022-09-28T12:39:20;12.30;80.70
60033;DHT22;45905;50.570;10.428;2022-09-28T12:45:14;12.50;81.40
60033;DHT22;45905;50.570;10.428;2022-09-28T12:51:51;12.80;80.50
60033;DHT22;45905;50.570;10.428;2022-09-28T12:57:28;13.10;84.60
60033;DHT22;45905;50.570;10.428;2022-09-28T13:00:16;13.10;81.00
60033;DHT22;45905;50.570;10.428;2022-09-28T13:18:29;12.00;84.40
60033;DHT22;45905;50.570;10.428;2022-09-28T13:21:17;11.80;86.10
60033;DHT22;45905;50.570;10.428;2022-09-28T13:23:49;11.60;86.50
60033;DHT22;45905;50.570;10.428;2022-09-28T13:26:42;11.40;86.80
60033;DHT22;45905;50.570;10.428;2022-09-28T13:29:18;11.30;87.40
60033;DHT22;45905;50.570;10.428;2022-09-28T13:31:57;11.20;88.10
60033;DHT22;45905;50.570;10.428;2022-09-28T13:34:28;11.20;89.20
60033;DHT22;45905;50.570;10.428;2022-09-28T13:53:25;11.40;89.20
60033;DHT22;45905;50.570;10.428;2022-09-28T13:59:24;11.50;86.30
60033;DHT22;45905;50.570;10.428;2022-09-28T14:02:30;11.50;87.30
60033;DHT22;45905;50.570;10.428;2022-09-28T14:10:50;11.90;88.50
60033;DHT22;45905;50.570;10.428;2022-09-28T14:16:23;12.00;86.10
60033;DHT22;45905;50.570;10.428;2022-09-28T14:25:23;11.80;87.00
60033;DHT22;45905;50.570;10.428;2022-09-28T14:28:18;11.60;87.00
60033;DHT22;45905;50.570;10.428;2022-09-28T14:30:54;11.50;88.40
60033;DHT22;45905;50.570;10.428;2022-09-28T14:33:29;11.30;87.60
60033;DHT22;45905;50.570;10.428;2022-09-28T14:36:04;11.20;88.50
60033;DHT22;45905;50.570;10.428;2022-09-28T14:38:37;11.10;88.90
60033;DHT22;45905;50.570;10.428;2022-09-28T14:41:36;11.10;89.20
60033;DHT22;45905;50.570;10.428;2022-09-28T14:44:12;11.00;86.40
60033;DHT22;45905;50.570;10.428;2022-09-28T14:46:46;10.90;87.30
60033;DHT22;45905;50.570;10.428;2022-09-28T14:54:26;10.80;88.50
60033;DHT22;45905;50.570;10.428;2022-09-28T14:59:26;10.80;89.00
60033;DHT22;45905;50.570;10.428;2022-09-28T15:04:55;10.60;88.80
60033;DHT22;45905;50.570;10.428;2022-09-28T15:07:42;10.60;89.50
60033;DHT22;45905;50.570;10.428;2022-09-28T15:13:04;10.60;89.90
60033;DHT22;45905;50.570;10.428;2022-09-28T15:15:44;10.60;89.90
60033;DHT22;45905;50.570;10.428;2022-09-28T15:21:20;10.50;90.00
60033;DHT22;45905;50.570;10.428;2022-09-28T15:23:48;10.40;90.20
60033;DHT22;45905;50.570;10.428;2022-09-28T15:26:25;10.30;90.30
60033;DHT22;45905;50.570;10.428;2022-09-28T15:28:57;10.30;90.60
60033;DHT22;45905;50.570;10.428;2022-09-28T15:31:34;10.30;90.60
60033;DHT22;45905;50.570;10.428;2022-09-28T15:34:01;10.20;91.00
60033;DHT22;45905;50.570;10.428;2022-09-28T15:36:47;10.20;90.90
60033;DHT22;45905;50.570;10.428;2022-09-28T15:39:28;10.10;90.90
60033;DHT22;45905;50.570;10.428;2022-09-28T15:41:58;10.00;90.30
60033;DHT22;45905;50.570;10.428;2022-09-28T15:44:35;9.90;91.50
60033;DHT22;45905;50.570;10.428;2022-09-28T15:47:13;9.90;91.60
60033;DHT22;45905;50.570;10.428;2022-09-28T15:50:01;9.90;91.70
60033;DHT22;45905;50.570;10.428;2022-09-28T15:52:42;9.90;91.80
60033;DHT22;45905;50.570;10.428;2022-09-28T15:55:17;9.80;91.90
60033;DHT22;45905;50.570;10.428;2022-09-28T15:57:48;9.80;92.10
60033;DHT22;45905;50.570;10.428;2022-09-28T16:00:28;9.80;92.30
60033;DHT22;45905;50.570;10.428;2022-09-28T16:08:19;9.70;92.80
60033;DHT22;45905;50.570;10.428;2022-09-28T16:19:28;9.50;92.80
60033;DHT22;45905;50.570;10.428;2022-09-28T16:22:05;9.50;92.70
60033;DHT22;45905;50.570;10.428;2022-09-28T16:24:37;9.40;92.60
60033;DHT22;45905;50.570;10.428;2022-09-28T16:27:24;9.50;92.80
60033;DHT22;45905;50.570;10.428;2022-09-28T16:32:57;9.40;92.50
60033;DHT22;45905;50.570;10.428;2022-09-28T16:35:29;9.40;92.60
60033;DHT22;45905;50.570;10.428;2022-09-28T16:40:28;9.30;92.90
60033;DHT22;45905;50.570;10.428;2022-09-28T16:42:59;9.30;93.00
60033;DHT22;45905;50.570;10.428;2022-09-28T16:45:30;9.20;92.90
60033;DHT22;45905;50.570;10.428;2022-09-28T16:47:57;9.20;92.90
60033;DHT22;45905;50.570;10.428;2022-09-28T16:50:24;9.20;93.00
60033;DHT22;45905;50.570;10.428;2022-09-28T16:52:58;9.20;93.10
60033;DHT22;45905;50.570;10.428;2022-09-28T16:55:48;9.30;93.20
60033;DHT22;45905;50.570;10.428;2022-09-28T16:58:15;9.20;93.10
60033;DHT22;45905;50.570;10.428;2022-09-28T17:00:42;9.30;93.10
60033;DHT22;45905;50.570;10.428;2022-09-28T17:03:16;9.30;93.10
60033;DHT22;45905;50.570;10.428;2022-09-28T17:05:47;9.30;93.10
60033;DHT22;45905;50.570;10.428;2022-09-28T17:08:16;9.30;92.80
60033;DHT22;45905;50.570;10.428;2022-09-28T17:10:56;9.20;92.70
60033;DHT22;45905;50.570;10.428;2022-09-28T17:13:43;9.10;92.90
60033;DHT22;45905;50.570;10.428;2022-09-28T17:16:20;9.10;93.10
60033;DHT22;45905;50.570;10.428;2022-09-28T17:19:20;9.00;93.30
60033;DHT22;45905;50.570;10.428;2022-09-28T17:21:50;8.90;93.60
60033;DHT22;45905;50.570;10.428;2022-09-28T17:24:18;8.90;93.80
60033;DHT22;45905;50.570;10.428;2022-09-28T17:26:48;8.90;93.80
60033;DHT22;45905;50.570;10.428;2022-09-28T17:29:17;8.90;93.90
60033;DHT22;45905;50.570;10.428;2022-09-28T17:31:45;8.80;93.70
60033;DHT22;45905;50.570;10.428;2022-09-28T17:34:14;8.80;93.70
60033;DHT22;45905;50.570;10.428;2022-09-28T17:36:42;8.80;93.80
60033;DHT22;45905;50.570;10.428;2022-09-28T17:39:16;8.90;93.90
60033;DHT22;45905;50.570;10.428;2022-09-28T17:41:45;8.90;93.90
60033;DHT22;45905;50.570;10.428;2022-09-28T17:44:12;8.90;93.80
60033;DHT22;45905;50.570;10.428;2022-09-28T17:46:43;9.00;93.80
60033;DHT22;45905;50.570;10.428;2022-09-28T17:49:14;8.90;93.70
60033;DHT22;45905;50.570;10.428;2022-09-28T17:51:42;8.90;93.80
60033;DHT22;45905;50.570;10.428;2022-09-28T17:54:10;8.90;93.90
60033;DHT22;45905;50.570;10.428;2022-09-28T17:56:39;8.90;94.00
60033;DHT22;45905;50.570;10.428;2022-09-28T17:59:10;8.90;93.90
60033;DHT22;45905;50.570;10.428;2022-09-28T18:01:39;8.90;94.10
60033;DHT22;45905;50.570;10.428;2022-09-28T18:04:08;8.90;94.10
60033;DHT22;45905;50.570;10.428;2022-09-28T18:06:57;8.90;94.40
60033;DHT22;45905;50.570;10.428;2022-09-28T18:09:24;8.80;94.10
60033;DHT22;45905;50.570;10.428;2022-09-28T18:11:58;8.80;94.20
60033;DHT22;45905;50.570;10.428;2022-09-28T18:14:26;8.80;93.90
60033;DHT22;45905;50.570;10.428;2022-09-28T18:16:54;8.80;93.50
60033;DHT22;45905;50.570;10.428;2022-09-28T18:19:21;8.70;93.30
60033;DHT22;45905;50.570;10.428;2022-09-28T18:21:48;8.70;93.10
60033;DHT22;45905;50.570;10.428;2022-09-28T18:24:15;8.50;92.90
60033;DHT22;45905;50.570;10.428;2022-09-28T18:26:43;8.50;92.90
60033;DHT22;45905;50.570;10.428;2022-09-28T18:29:10;8.50;92.80
60033;DHT22;45905;50.570;10.428;2022-09-28T18:31:37;8.50;92.90
60033;DHT22;45905;50.570;10.428;2022-09-28T18:34:04;8.40;93.00
60033;DHT22;45905;50.570;10.428;2022-09-28T18:36:32;8.40;93.10
60033;DHT22;45905;50.570;10.428;2022-09-28T18:39:01;8.20;93.00
60033;DHT22;45905;50.570;10.428;2022-09-28T18:41:29;8.30;93.20
60033;DHT22;45905;50.570;10.428;2022-09-28T18:43:56;8.30;93.60
60033;DHT22;45905;50.570;10.428;2022-09-28T18:46:27;8.20;93.20
60033;DHT22;45905;50.570;10.428;2022-09-28T18:48:55;8.20;93.30
60033;DHT22;45905;50.570;10.428;2022-09-28T18:51:22;8.20;93.30
60033;DHT22;45905;50.570;10.428;2022-09-28T18:53:50;8.10;93.50
60033;DHT22;45905;50.570;10.428;2022-09-28T18:56:17;8.10;93.60
60033;DHT22;45905;50.570;10.428;2022-09-28T18:58:46;8.00;93.40
60033;DHT22;45905;50.570;10.428;2022-09-28T19:01:16;8.00;93.30
60033;DHT22;45905;50.570;10.428;2022-09-28T19:04:06;7.90;93.20
60033;DHT22;45905;50.570;10.428;2022-09-28T19:06:37;7.80;92.80
60033;DHT22;45905;50.570;10.428;2022-09-28T19:09:10;7.80;93.00
60033;DHT22;45905;50.570;10.428;2022-09-28T19:11:38;7.80;93.20
60033;DHT22;45905;50.570;10.428;2022-09-28T19:14:05;7.70;93.10
60033;DHT22;45905;50.570;10.428;2022-09-28T19:16:32;7.70;93.00
60033;DHT22;45905;50.570;10.428;2022-09-28T19:19:01;7.50;93.00
60033;DHT22;45905;50.570;10.428;2022-09-28T19:21:29;7.60;93.20
60033;DHT22;45905;50.570;10.428;2022-09-28T19:23:59;7.50;93.40
60033;DHT22;45905;50.570;10.428;2022-09-28T19:26:28;7.50;93.40
60033;DHT22;45905;50.570;10.428;2022-09-28T19:28:56;7.40;93.30
60033;DHT22;45905;50.570;10.428;2022-09-28T19:31:25;7.40;93.20
60033;DHT22;45905;50.570;10.428;2022-09-28T19:33:52;7.30;93.00
60033;DHT22;45905;50.570;10.428;2022-09-28T19:36:21;7.40;93.10
60033;DHT22;45905;50.570;10.428;2022-09-28T19:38:51;7.30;93.20